Port Angeles Cgas Information

FAA: NOW - ICAO: KNOW

Port Angeles Cgas (Airport) Location

State Washington
County Clallam
City Port Angeles
Port Angeles Cgas (Airport) is 2 miles north of Port Angeles, WA.
Latitude 48-08-28.6535N
Longitude 123-24-50.2345W
Elevation 13ft

Port Angeles Cgas METARs

METAR KNOW 251715Z AUTO 19007KT 10SM OVC012 03/02 A3037 RMK AO2 T00340022
Altimeter 30.37"
Temperature 3.4°C (38.1°F)
Wind 190° at 7KT
Clouds overcast at 1,200ft
Visibility 10.0mi
Time observed: 2022-01-25T17:15:00Z

Port Angeles Cgas (Airport) Details

Status Operational
Activation July 1943
Ownership Coast Guard
Usage Private
Chart SEATTLE
ATC on-site No
Beacon schedule sunset-sunrise
Beacon color split clear green

Port Angeles Cgas (Airport) Contacts

Owner USCG
Owner address 1 EDIZ HOOK, PORT ANGELES, WA 98362
Owner phone N/A
Manager DAVID F. NELSON
Manager address 110 GORE ROAD, ONALASKA, WA 98570
Manager phone 360-978-4961

Port Angeles Cgas Radio Frequencies

Port Angeles Cgas (Airport) Radio Frequencies

UNICOM 122.975
Common traffic advisory frequency (CTAF) 122.975